createdAt,value
2023-03-31T00:01:14.258Z,95279.84
2023-03-31T00:03:43.952Z,95297.53
2023-03-31T00:06:19.010Z,95308.44
2023-03-31T00:08:51.859Z,95290.38
2023-03-31T00:11:21.484Z,95269.56
2023-03-31T00:13:49.669Z,95287.59
2023-03-31T00:16:19.178Z,95290.75
2023-03-31T00:18:50.721Z,95278.06
2023-03-31T00:21:33.901Z,95285.53
2023-03-31T00:24:03.615Z,95277.16
2023-03-31T00:26:31.725Z,95284.41
2023-03-31T00:29:00.502Z,95263.75
2023-03-31T00:31:30.500Z,95274.25
2023-03-31T00:33:59.047Z,95283.47
2023-03-31T00:36:28.483Z,95274.78
2023-03-31T00:39:00.194Z,95269.66
2023-03-31T00:41:28.970Z,94974.31
2023-03-31T00:44:08.581Z,95271.31
2023-03-31T00:46:43.378Z,95267.28
2023-03-31T00:49:18.174Z,95261.13
2023-03-31T00:51:46.826Z,95259.84
2023-03-31T00:54:15.462Z,95256.81
2023-03-31T00:56:48.266Z,95236.31
2023-03-31T00:59:16.823Z,95258.16
2023-03-31T01:01:50.690Z,95248.66
2023-03-31T01:04:22.652Z,95242.78
2023-03-31T01:07:01.012Z,95244.25
2023-03-31T01:09:35.143Z,95243.69
2023-03-31T01:12:07.111Z,95247.34
2023-03-31T01:14:35.931Z,95248.00
2023-03-31T01:17:05.625Z,95253.69
2023-03-31T01:19:49.826Z,95257.03
2023-03-31T01:22:49.545Z,95245.59
2023-03-31T01:25:42.752Z,95258.53
2023-03-31T01:28:23.126Z,95251.16
2023-03-31T01:31:34.134Z,95236.41
2023-03-31T01:34:43.261Z,95262.84
2023-03-31T01:37:51.948Z,95254.34
2023-03-31T01:40:45.205Z,95249.66
2023-03-31T01:43:18.795Z,95257.47
2023-03-31T01:45:58.810Z,95275.81
2023-03-31T01:48:36.990Z,95272.47
2023-03-31T01:51:11.484Z,95281.66
2023-03-31T01:53:50.760Z,95268.84
2023-03-31T01:56:24.765Z,95277.69
2023-03-31T01:59:00.771Z,95280.09
2023-03-31T02:01:33.900Z,95282.47
2023-03-31T02:04:11.403Z,95279.94
2023-03-31T02:06:43.831Z,95285.94
2023-03-31T02:09:16.886Z,95296.66
2023-03-31T02:11:48.673Z,95285.56
2023-03-31T02:14:21.938Z,95294.72
2023-03-31T02:16:58.366Z,95299.97
2023-03-31T02:19:31.158Z,95291.41
2023-03-31T02:22:00.077Z,95308.03
2023-03-31T02:24:31.120Z,95240.13
2023-03-31T02:27:08.107Z,95320.50
2023-03-31T02:29:36.293Z,95312.44
2023-03-31T02:32:11.179Z,95324.63
2023-03-31T02:34:39.181Z,95320.19
2023-03-31T02:37:08.488Z,95326.66
2023-03-31T02:39:39.771Z,95335.53
2023-03-31T02:42:09.913Z,95320.81
2023-03-31T02:44:39.179Z,95303.78
2023-03-31T02:47:09.521Z,95326.53
2023-03-31T02:49:39.883Z,95319.75
2023-03-31T02:52:30.381Z,95319.75
2023-03-31T02:55:24.680Z,95309.31
2023-03-31T02:58:14.317Z,95307.72
2023-03-31T03:00:57.253Z,95292.78
2023-03-31T03:03:37.183Z,95294.16
2023-03-31T03:06:17.789Z,95286.25
2023-03-31T03:08:59.558Z,95282.31
2023-03-31T03:11:34.804Z,95278.34
2023-03-31T03:14:11.544Z,95274.91
2023-03-31T03:16:46.224Z,95274.94
2023-03-31T03:19:23.554Z,95267.66
2023-03-31T03:21:51.717Z,95255.28
2023-03-31T03:24:29.552Z,95257.88
2023-03-31T03:26:57.809Z,95209.41
2023-03-31T03:29:27.327Z,95258.88
2023-03-31T03:31:55.457Z,95235.28
2023-03-31T03:34:23.333Z,95254.22
2023-03-31T03:36:51.940Z,95204.78
2023-03-31T03:39:19.870Z,95253.41
2023-03-31T03:41:48.021Z,95250.88
2023-03-31T03:44:16.020Z,95253.94
2023-03-31T03:46:45.503Z,95239.03
2023-03-31T03:49:13.611Z,95239.66
2023-03-31T03:51:41.534Z,95238.38
2023-03-31T03:54:09.378Z,95236.31
2023-03-31T03:56:37.246Z,95227.38
2023-03-31T03:59:05.089Z,95232.91
2023-03-31T04:01:32.953Z,95234.00
2023-03-31T04:04:02.211Z,95235.78
2023-03-31T04:06:30.197Z,95242.28
2023-03-31T04:08:58.097Z,95241.28
2023-03-31T04:11:26.058Z,95218.38
2023-03-31T04:13:53.870Z,95245.91
2023-03-31T04:16:23.096Z,95257.44
2023-03-31T04:18:50.993Z,95273.13
2023-03-31T04:21:23.841Z,95238.47
2023-03-31T04:23:58.800Z,95251.69
2023-03-31T04:26:31.066Z,95251.09
2023-03-31T04:29:00.487Z,95242.28
2023-03-31T04:31:30.877Z,95250.63
2023-03-31T04:34:02.606Z,95243.97
2023-03-31T04:36:32.421Z,95242.25
2023-03-31T04:39:01.331Z,95243.78
2023-03-31T04:41:29.236Z,95242.63
2023-03-31T04:43:57.161Z,95234.28
2023-03-31T04:46:25.601Z,95179.88
2023-03-31T04:48:53.526Z,95227.34
2023-03-31T04:51:21.385Z,95233.00
2023-03-31T04:53:50.557Z,95232.59
2023-03-31T04:56:18.454Z,95241.09
2023-03-31T04:58:46.302Z,95233.22
2023-03-31T05:01:18.257Z,95235.16
2023-03-31T05:03:47.994Z,95239.59
2023-03-31T05:06:16.485Z,95232.91
2023-03-31T05:08:45.150Z,95227.53
2023-03-31T05:11:14.377Z,95210.50
2023-03-31T05:13:42.239Z,95228.16
2023-03-31T05:16:12.393Z,95219.38
2023-03-31T05:18:40.445Z,95213.38
2023-03-31T05:21:13.118Z,95222.84
2023-03-31T05:23:41.547Z,95222.97
2023-03-31T05:26:10.018Z,95177.03
2023-03-31T05:28:39.581Z,95222.78
2023-03-31T05:31:08.710Z,95191.78
2023-03-31T05:33:40.389Z,95203.22
2023-03-31T05:36:10.662Z,95176.56
2023-03-31T05:38:40.825Z,95120.25
2023-03-31T05:41:09.538Z,95194.69
2023-03-31T05:43:39.423Z,95199.44
2023-03-31T05:46:07.996Z,95209.03
2023-03-31T05:48:37.966Z,95194.56
2023-03-31T05:51:06.848Z,95193.53
2023-03-31T05:53:35.221Z,95200.63
2023-03-31T05:56:06.952Z,95200.91
2023-03-31T05:58:35.683Z,95210.19
2023-03-31T06:01:07.315Z,95191.19
2023-03-31T06:03:37.505Z,95208.31
2023-03-31T06:06:07.379Z,95208.75
2023-03-31T06:08:35.801Z,95210.44
2023-03-31T06:11:07.050Z,95213.25
2023-03-31T06:13:35.176Z,95207.72
2023-03-31T06:16:03.524Z,95199.22
2023-03-31T06:18:34.266Z,95204.19
2023-03-31T06:21:02.530Z,95207.53
2023-03-31T06:23:31.144Z,95198.72
2023-03-31T06:26:02.378Z,95194.41
2023-03-31T06:28:30.529Z,95202.00
2023-03-31T06:31:02.969Z,95198.81
2023-03-31T06:33:33.170Z,95199.41
2023-03-31T06:36:04.328Z,95197.72
2023-03-31T06:38:32.901Z,95186.28
2023-03-31T06:41:00.793Z,95200.47
2023-03-31T06:43:28.732Z,95197.75
2023-03-31T06:45:57.761Z,95197.97
2023-03-31T06:48:26.648Z,95200.22
2023-03-31T06:50:57.733Z,95204.63
2023-03-31T06:53:25.883Z,95200.44
2023-03-31T06:55:53.871Z,95206.22
2023-03-31T06:58:22.582Z,95195.84
2023-03-31T07:00:50.902Z,95207.22
2023-03-31T07:03:22.471Z,95189.75
2023-03-31T07:05:51.382Z,95193.81
2023-03-31T07:08:21.586Z,95181.56
2023-03-31T07:10:50.331Z,95164.50
2023-03-31T07:13:19.182Z,95105.56
2023-03-31T07:15:49.619Z,95151.09
2023-03-31T07:18:19.163Z,95137.00
2023-03-31T07:20:49.700Z,95118.47
2023-03-31T07:23:18.153Z,95120.09
2023-03-31T07:25:47.913Z,95098.31
2023-03-31T07:28:16.408Z,95131.34
2023-03-31T07:30:44.640Z,95130.00
2023-03-31T07:33:12.621Z,95111.25
2023-03-31T07:35:42.314Z,95140.16
2023-03-31T07:38:12.704Z,95132.69
2023-03-31T07:40:41.739Z,95119.06
2023-03-31T07:43:11.068Z,95118.50
2023-03-31T07:45:40.485Z,95108.50
2023-03-31T07:48:08.806Z,95078.88
2023-03-31T07:50:37.271Z,95092.72
2023-03-31T07:53:05.234Z,95129.13
2023-03-31T07:55:33.283Z,95072.84
2023-03-31T07:58:01.236Z,95123.72
2023-03-31T08:00:30.727Z,95126.91
2023-03-31T08:02:58.683Z,95119.06
2023-03-31T08:05:26.712Z,95116.34
2023-03-31T08:07:54.686Z,95113.13
2023-03-31T08:10:25.119Z,95113.78
2023-03-31T08:12:53.067Z,95115.81
2023-03-31T08:15:21.097Z,95111.53
2023-03-31T08:17:50.688Z,95081.91
2023-03-31T08:20:18.668Z,95103.13
2023-03-31T08:22:46.579Z,95089.09
2023-03-31T08:25:14.557Z,95104.66
2023-03-31T08:27:43.229Z,94931.81
2023-03-31T08:30:13.023Z,95042.22
2023-03-31T08:32:41.038Z,95091.28
2023-03-31T08:35:11.489Z,95086.78
2023-03-31T08:37:40.036Z,95085.38
2023-03-31T08:40:12.564Z,95072.72
2023-03-31T08:42:44.848Z,95096.34
2023-03-31T08:45:20.056Z,95073.78
2023-03-31T08:47:50.283Z,94993.88
2023-03-31T08:50:25.512Z,95039.78
2023-03-31T08:53:07.114Z,95062.63
2023-03-31T08:55:43.313Z,95079.38
2023-03-31T08:58:22.333Z,95073.06
2023-03-31T09:00:58.587Z,95062.25
2023-03-31T09:03:33.131Z,95076.22
2023-03-31T09:06:07.002Z,94972.75
2023-03-31T09:08:37.905Z,95060.81
2023-03-31T09:11:11.965Z,95059.22
2023-03-31T09:14:24.847Z,95066.38
2023-03-31T09:17:01.991Z,95056.66
2023-03-31T09:19:38.609Z,95050.19
2023-03-31T09:22:15.422Z,95053.25
2023-03-31T09:24:52.064Z,95050.97
2023-03-31T09:27:22.058Z,95019.44
2023-03-31T09:29:53.594Z,95056.16
2023-03-31T09:32:24.120Z,95001.13
2023-03-31T09:34:54.870Z,95056.75
2023-03-31T09:37:26.330Z,95040.06
2023-03-31T09:39:54.382Z,94956.50
2023-03-31T09:42:23.372Z,95049.50
2023-03-31T09:44:51.288Z,95042.38
2023-03-31T09:47:30.449Z,95035.47
2023-03-31T09:49:58.377Z,95021.88
2023-03-31T09:52:32.108Z,95035.31
2023-03-31T09:55:02.725Z,95045.78
2023-03-31T09:57:33.981Z,94979.84
2023-03-31T10:00:13.703Z,95004.53
2023-03-31T10:02:45.940Z,95027.38
2023-03-31T10:05:31.551Z,95025.53
2023-03-31T10:10:58.348Z,94997.16
2023-03-31T10:13:29.450Z,94968.78
2023-03-31T10:16:04.088Z,94995.84
2023-03-31T10:18:37.698Z,95004.56
2023-03-31T10:21:08.215Z,94981.91
2023-03-31T10:23:37.159Z,94991.84
2023-03-31T10:26:06.921Z,94995.81
2023-03-31T10:28:37.297Z,94990.25
2023-03-31T10:31:06.494Z,94988.28
2023-03-31T10:33:39.108Z,95019.06
2023-03-31T10:36:13.362Z,94991.88
2023-03-31T10:38:45.828Z,94974.91
2023-03-31T10:41:21.021Z,94963.03
2023-03-31T10:43:52.272Z,94940.91
2023-03-31T10:46:20.616Z,94958.50
2023-03-31T10:48:48.624Z,94849.50
2023-03-31T10:51:18.660Z,94924.97
2023-03-31T10:53:48.724Z,94930.06
2023-03-31T10:56:43.637Z,94977.03
2023-03-31T10:59:42.022Z,94957.34
2023-03-31T11:02:43.928Z,94953.50
2023-03-31T11:05:18.041Z,94954.66
2023-03-31T11:07:59.503Z,94882.78
2023-03-31T11:10:52.828Z,94948.03
2023-03-31T11:13:29.321Z,94948.75
2023-03-31T11:16:08.342Z,94919.84
2023-03-31T11:18:52.463Z,94948.72
2023-03-31T11:21:26.418Z,94641.25
2023-03-31T11:24:09.698Z,94918.28
2023-03-31T11:26:47.861Z,94934.28
2023-03-31T11:29:31.897Z,94914.34
2023-03-31T11:32:17.054Z,94923.28
2023-03-31T11:35:00.266Z,94916.00
2023-03-31T11:37:41.737Z,94925.25
2023-03-31T11:40:31.961Z,94866.03
2023-03-31T11:43:03.827Z,94889.34
2023-03-31T11:45:38.898Z,94901.63
2023-03-31T11:48:17.173Z,94874.78
2023-03-31T11:50:48.605Z,94903.91
2023-03-31T11:53:21.213Z,94900.94
2023-03-31T11:55:52.976Z,94886.22
2023-03-31T11:58:28.234Z,94885.59
2023-03-31T12:01:03.529Z,94887.44
2023-03-31T12:03:41.559Z,94861.97
2023-03-31T12:06:19.016Z,94877.03
2023-03-31T12:08:56.208Z,94808.72
2023-03-31T12:11:32.544Z,94867.41
2023-03-31T12:14:09.889Z,94873.06
2023-03-31T12:16:44.104Z,94870.75
2023-03-31T12:19:18.285Z,94863.06
2023-03-31T12:21:52.779Z,94838.19
2023-03-31T12:24:21.349Z,94845.50
2023-03-31T12:27:00.576Z,94774.34
2023-03-31T12:29:32.752Z,94853.66
2023-03-31T12:32:06.972Z,94829.59
2023-03-31T12:34:42.539Z,94839.50
2023-03-31T12:37:28.725Z,94696.84
2023-03-31T12:40:09.642Z,94783.75
2023-03-31T12:43:07.552Z,94849.16
2023-03-31T12:45:41.136Z,94825.53
2023-03-31T12:48:33.407Z,94817.38
2023-03-31T12:51:21.452Z,94814.19
2023-03-31T12:54:14.312Z,94769.16
2023-03-31T12:57:05.863Z,94814.00
2023-03-31T12:59:41.228Z,94757.66
2023-03-31T13:02:26.666Z,94768.03
2023-03-31T13:04:56.616Z,94789.72
2023-03-31T13:07:42.520Z,94784.56
2023-03-31T13:10:31.339Z,94778.81
2023-03-31T13:13:05.521Z,94773.50
2023-03-31T13:15:36.744Z,94763.47
2023-03-31T13:18:06.695Z,94730.47
2023-03-31T13:20:38.137Z,94748.19
2023-03-31T13:23:14.877Z,94668.56
2023-03-31T13:25:48.670Z,94729.25
2023-03-31T13:28:35.122Z,94649.94
2023-03-31T13:31:04.129Z,94616.06
2023-03-31T13:33:49.942Z,94709.81
2023-03-31T13:36:51.320Z,94703.84
2023-03-31T13:39:51.696Z,94706.63
2023-03-31T13:42:42.646Z,94721.81
2023-03-31T13:45:45.706Z,94704.19
2023-03-31T13:48:28.097Z,94691.50
2023-03-31T13:51:13.753Z,94683.63
2023-03-31T13:54:16.973Z,94677.75
2023-03-31T13:57:23.177Z,94666.03
2023-03-31T14:00:13.039Z,94663.75
2023-03-31T14:02:58.532Z,94643.38
2023-03-31T14:05:38.845Z,94656.56
2023-03-31T14:08:14.717Z,94655.72
2023-03-31T14:10:45.310Z,94667.34
2023-03-31T14:16:04.416Z,94653.94
2023-03-31T14:18:35.923Z,94671.34
2023-03-31T14:21:17.922Z,94658.84
2023-03-31T14:23:56.831Z,94657.31
2023-03-31T14:26:47.012Z,94652.78
2023-03-31T14:29:24.507Z,94645.13
2023-03-31T14:32:00.617Z,94642.81
2023-03-31T14:34:51.667Z,94647.41
2023-03-31T14:37:23.031Z,94643.50
2023-03-31T14:39:53.894Z,94640.31
2023-03-31T14:42:27.457Z,94640.38
2023-03-31T14:44:57.654Z,94635.38
2023-03-31T14:47:30.449Z,94622.50
2023-03-31T14:50:02.691Z,94626.38
2023-03-31T14:52:33.781Z,94612.78
2023-03-31T14:55:02.044Z,94621.75
2023-03-31T14:57:35.176Z,94620.25
2023-03-31T15:00:08.010Z,94610.88
2023-03-31T15:02:38.318Z,94609.69
2023-03-31T15:05:09.800Z,94608.63
2023-03-31T15:07:38.834Z,94416.97
2023-03-31T15:10:08.638Z,94610.19
2023-03-31T15:12:38.659Z,94591.91
2023-03-31T15:15:08.472Z,94605.13
2023-03-31T15:17:40.233Z,94613.31
2023-03-31T15:20:28.214Z,94608.28
2023-03-31T15:22:57.250Z,94611.41
2023-03-31T15:25:28.561Z,94610.25
2023-03-31T15:28:01.789Z,94607.16
2023-03-31T15:30:30.964Z,94608.75
2023-03-31T15:33:11.648Z,94590.88
2023-03-31T15:35:46.930Z,94610.34
2023-03-31T15:38:20.396Z,94394.44
2023-03-31T15:40:54.083Z,94596.34
2023-03-31T15:43:32.308Z,94590.09
2023-03-31T15:46:01.669Z,94595.94
2023-03-31T15:48:33.518Z,94606.09
2023-03-31T15:51:03.858Z,94542.25
2023-03-31T15:53:37.351Z,94587.78
2023-03-31T15:56:07.418Z,94590.88
2023-03-31T15:59:03.087Z,94586.63
2023-03-31T16:01:35.093Z,94587.00
2023-03-31T16:04:07.634Z,94597.16
2023-03-31T16:06:46.244Z,94598.72
2023-03-31T16:09:20.703Z,94593.25
2023-03-31T16:11:53.535Z,94586.66
2023-03-31T16:14:26.828Z,94571.88
2023-03-31T16:17:03.058Z,94584.31
2023-03-31T16:19:34.429Z,94509.19
2023-03-31T16:22:04.793Z,94574.59
2023-03-31T16:24:34.871Z,94574.59
2023-03-31T16:27:06.618Z,94558.25
2023-03-31T16:29:37.543Z,94587.03
2023-03-31T16:32:09.834Z,94589.75
2023-03-31T16:34:53.237Z,94586.63
2023-03-31T16:37:21.671Z,94584.69
2023-03-31T16:39:49.577Z,94578.47
2023-03-31T16:42:17.762Z,94466.72
2023-03-31T16:44:52.887Z,94583.88
2023-03-31T16:47:35.205Z,94582.34
2023-03-31T16:50:07.507Z,94570.22
2023-03-31T16:52:36.069Z,94574.88
2023-03-31T16:55:04.806Z,94569.03
2023-03-31T16:57:33.423Z,94553.06
2023-03-31T17:00:05.643Z,94576.00
2023-03-31T17:02:33.573Z,94563.56
2023-03-31T17:05:12.649Z,94427.25
2023-03-31T17:07:41.251Z,94572.03
2023-03-31T17:10:10.416Z,94557.25
2023-03-31T17:12:38.375Z,94538.53
2023-03-31T17:15:09.197Z,94581.31
2023-03-31T17:17:37.415Z,94566.06
2023-03-31T17:20:08.748Z,94585.91
2023-03-31T17:22:36.666Z,94553.47
2023-03-31T17:25:07.125Z,94581.56
2023-03-31T17:27:35.857Z,94581.53
2023-03-31T17:32:40.433Z,94565.50
2023-03-31T17:35:10.406Z,94579.56
2023-03-31T17:37:38.741Z,94563.19
2023-03-31T17:40:07.873Z,94565.06
2023-03-31T17:42:35.785Z,94562.75
2023-03-31T17:45:03.794Z,94577.06
2023-03-31T17:47:32.634Z,94576.59
2023-03-31T17:50:02.271Z,94578.13
2023-03-31T17:52:31.056Z,94571.59
2023-03-31T17:54:59.410Z,94564.59
2023-03-31T17:57:27.533Z,94577.00
2023-03-31T17:59:55.819Z,94566.47
2023-03-31T18:02:24.264Z,94573.00
2023-03-31T18:04:52.448Z,94564.38
2023-03-31T18:07:23.254Z,94521.84
2023-03-31T18:09:51.560Z,94508.97
2023-03-31T18:12:19.671Z,94575.94
2023-03-31T18:14:48.171Z,94562.66
2023-03-31T18:17:16.158Z,94580.19
2023-03-31T18:19:44.812Z,94575.50
2023-03-31T18:22:12.919Z,94577.41
2023-03-31T18:24:42.745Z,94568.84
2023-03-31T18:27:12.386Z,94568.06
2023-03-31T18:29:40.738Z,94572.66
2023-03-31T18:32:09.929Z,94570.28
2023-03-31T18:34:38.440Z,94566.03
2023-03-31T18:37:06.716Z,94562.06
2023-03-31T18:39:35.341Z,94564.38
2023-03-31T18:42:05.550Z,94560.81
2023-03-31T18:44:36.047Z,94570.81
2023-03-31T18:47:04.649Z,94567.66
2023-03-31T18:49:33.160Z,94506.03
2023-03-31T18:52:04.339Z,94570.47
2023-03-31T18:54:32.306Z,94499.38
2023-03-31T18:57:01.546Z,94563.28
2023-03-31T18:59:31.178Z,94527.78
2023-03-31T19:01:59.097Z,94564.00
2023-03-31T19:04:27.258Z,94566.63
2023-03-31T19:06:56.534Z,94564.31
2023-03-31T19:09:27.974Z,94563.72
2023-03-31T19:11:57.520Z,94541.84
2023-03-31T19:14:25.415Z,94557.84
2023-03-31T19:16:54.741Z,94553.09
2023-03-31T19:19:22.805Z,94566.53
2023-03-31T19:21:52.403Z,94573.78
2023-03-31T19:24:20.500Z,94568.03
2023-03-31T19:26:49.062Z,94441.59
2023-03-31T19:29:17.641Z,94565.03
2023-03-31T19:31:47.705Z,94508.00
2023-03-31T19:34:17.924Z,94559.06
2023-03-31T19:36:45.884Z,94562.28
2023-03-31T19:39:14.009Z,94550.00
2023-03-31T19:41:41.894Z,94562.25
2023-03-31T19:44:09.785Z,94549.50
2023-03-31T19:46:37.799Z,94544.34
2023-03-31T19:49:06.465Z,94570.69
2023-03-31T19:51:35.721Z,94567.66
2023-03-31T19:54:03.612Z,94553.41
2023-03-31T19:56:35.554Z,94568.50
2023-03-31T19:59:04.969Z,94549.69
2023-03-31T20:01:33.601Z,94566.81
2023-03-31T20:04:01.835Z,94582.22
2023-03-31T20:06:31.916Z,94556.28
2023-03-31T20:09:03.728Z,94524.88
2023-03-31T20:11:32.265Z,94568.16
2023-03-31T20:14:00.864Z,94359.25
2023-03-31T20:16:30.735Z,94566.47
2023-03-31T20:19:01.276Z,94574.28
2023-03-31T20:21:32.042Z,94570.41
2023-03-31T20:24:01.458Z,94568.75
2023-03-31T20:26:32.505Z,94545.59
2023-03-31T20:29:03.882Z,94564.63
2023-03-31T20:31:36.836Z,94551.00
2023-03-31T20:34:06.152Z,94546.63
2023-03-31T20:36:34.387Z,94551.16
2023-03-31T20:39:05.688Z,94566.03
2023-03-31T20:41:35.596Z,94551.75
2023-03-31T20:44:03.834Z,94556.44
2023-03-31T20:46:32.069Z,94470.03
2023-03-31T20:49:00.793Z,94556.88
2023-03-31T20:51:33.470Z,94554.28
2023-03-31T20:54:04.063Z,94556.78
2023-03-31T20:56:33.658Z,94327.00
2023-03-31T20:59:02.290Z,94522.72
2023-03-31T21:01:32.604Z,94547.13
2023-03-31T21:04:01.747Z,94542.84
2023-03-31T21:06:32.542Z,94523.00
2023-03-31T21:09:01.045Z,94556.25
2023-03-31T21:11:33.039Z,94538.22
2023-03-31T21:14:01.072Z,94384.94
2023-03-31T21:16:29.076Z,94521.81
2023-03-31T21:18:58.680Z,94520.16
2023-03-31T21:21:27.555Z,94545.28
2023-03-31T21:23:56.013Z,94545.22
2023-03-31T21:26:25.016Z,94538.94
2023-03-31T21:28:54.906Z,94376.28
2023-03-31T21:31:24.557Z,94464.50
2023-03-31T21:33:56.599Z,94531.81
2023-03-31T21:36:26.858Z,94532.03
2023-03-31T21:38:56.830Z,94542.03
2023-03-31T21:41:27.214Z,94513.19
2023-03-31T21:44:00.572Z,94538.34
2023-03-31T21:46:32.893Z,94534.50
2023-03-31T21:49:01.842Z,94536.91
2023-03-31T21:51:30.072Z,94526.13
2023-03-31T21:53:58.474Z,94500.69
2023-03-31T21:56:32.046Z,94531.22
2023-03-31T21:59:02.492Z,94506.22
2023-03-31T22:01:30.839Z,94479.97
2023-03-31T22:04:00.489Z,94529.16
2023-03-31T22:06:28.772Z,94517.66
2023-03-31T22:08:56.733Z,94518.88
2023-03-31T22:11:24.859Z,94556.38
2023-03-31T22:13:53.098Z,93966.78
2023-03-31T22:16:24.952Z,94511.13
2023-03-31T22:18:55.959Z,94511.94
2023-03-31T22:21:26.037Z,94512.47
2023-03-31T22:23:55.233Z,94480.19
2023-03-31T22:26:24.294Z,94502.41
2023-03-31T22:28:53.432Z,94508.19
2023-03-31T22:31:22.995Z,94504.63
2023-03-31T22:33:53.983Z,94503.00
2023-03-31T22:36:24.374Z,94496.16
2023-03-31T22:38:53.947Z,94506.75
2023-03-31T22:41:22.078Z,94512.84
2023-03-31T22:43:52.633Z,94472.41
2023-03-31T22:46:32.148Z,94506.31
2023-03-31T22:49:01.521Z,94502.53
2023-03-31T22:51:30.066Z,94499.19
2023-03-31T22:53:58.816Z,94488.56
2023-03-31T22:56:28.737Z,94435.06
2023-03-31T22:58:57.962Z,94423.13
2023-03-31T23:01:28.143Z,94491.19
2023-03-31T23:03:56.364Z,94480.88
2023-03-31T23:06:24.298Z,94498.28
2023-03-31T23:08:52.573Z,94488.91
2023-03-31T23:11:20.727Z,94457.66
2023-03-31T23:13:49.025Z,94448.56
2023-03-31T23:16:19.030Z,94479.63
2023-03-31T23:18:48.889Z,94482.91
2023-03-31T23:21:19.519Z,94453.56
2023-03-31T23:23:51.372Z,94485.44
2023-03-31T23:26:20.305Z,94492.63
2023-03-31T23:28:49.891Z,94485.91
2023-03-31T23:31:18.762Z,94472.06
2023-03-31T23:33:48.356Z,94463.69
2023-03-31T23:36:18.490Z,94479.41
2023-03-31T23:38:47.010Z,94466.81
2023-03-31T23:41:15.054Z,94443.09
2023-03-31T23:43:43.044Z,94465.66
2023-03-31T23:46:11.966Z,94414.41
2023-03-31T23:48:40.953Z,94455.72
2023-03-31T23:51:11.541Z,94451.34
2023-03-31T23:53:40.900Z,94460.66
2023-03-31T23:56:15.315Z,94444.31
2023-03-31T23:58:45.104Z,94451.09
